sensor_id;sensor_type;location;lat;lon;timestamp;temperature;humidity
3876;DHT22;1953;51.222;6.624;2023-03-12T00:00:51;4.30;1.00
3876;DHT22;1953;51.222;6.624;2023-03-12T00:10:09;4.20;1.00
3876;DHT22;1953;51.222;6.624;2023-03-12T00:14:52;4.10;1.00
3876;DHT22;1953;51.222;6.624;2023-03-12T00:19:34;4.00;1.00
3876;DHT22;1953;51.222;6.624;2023-03-12T00:24:17;4.20;1.00
3876;DHT22;1953;51.222;6.624;2023-03-12T00:29:01;4.20;1.00
3876;DHT22;1953;51.222;6.624;2023-03-12T00:33:43;4.20;1.00
3876;DHT22;1953;51.222;6.624;2023-03-12T00:38:26;4.30;1.00
3876;DHT22;1953;51.222;6.624;2023-03-12T00:43:08;4.40;1.00
3876;DHT22;1953;51.222;6.624;2023-03-12T00:47:52;4.40;1.00
3876;DHT22;1953;51.222;6.624;2023-03-12T00:52:34;4.40;1.00
3876;DHT22;1953;51.222;6.624;2023-03-12T00:57:16;4.40;1.00
3876;DHT22;1953;51.222;6.624;2023-03-12T01:01:59;4.40;1.00
3876;DHT22;1953;51.222;6.624;2023-03-12T01:06:43;4.40;1.00
3876;DHT22;1953;51.222;6.624;2023-03-12T01:11:26;4.40;1.00
3876;DHT22;1953;51.222;6.624;2023-03-12T01:16:09;4.40;1.00
3876;DHT22;1953;51.222;6.624;2023-03-12T01:20:52;4.40;1.00
3876;DHT22;1953;51.222;6.624;2023-03-12T01:25:36;4.40;1.00
3876;DHT22;1953;51.222;6.624;2023-03-12T01:30:18;4.40;1.00
3876;DHT22;1953;51.222;6.624;2023-03-12T01:35:01;4.40;1.00
3876;DHT22;1953;51.222;6.624;2023-03-12T01:39:43;4.30;1.00
3876;DHT22;1953;51.222;6.624;2023-03-12T01:44:27;4.30;1.00
3876;DHT22;1953;51.222;6.624;2023-03-12T01:49:12;4.30;1.00
3876;DHT22;1953;51.222;6.624;2023-03-12T01:53:58;4.30;1.00
3876;DHT22;1953;51.222;6.624;2023-03-12T01:58:43;4.20;1.00
3876;DHT22;1953;51.222;6.624;2023-03-12T02:03:28;4.20;1.00
3876;DHT22;1953;51.222;6.624;2023-03-12T02:08:12;4.20;1.00
3876;DHT22;1953;51.222;6.624;2023-03-12T02:12:54;4.30;1.00
3876;DHT22;1953;51.222;6.624;2023-03-12T02:17:37;4.30;1.00
3876;DHT22;1953;51.222;6.624;2023-03-12T02:22:22;4.30;1.00
3876;DHT22;1953;51.222;6.624;2023-03-12T02:27:07;4.30;1.00
3876;DHT22;1953;51.222;6.624;2023-03-12T02:31:52;4.40;1.00
3876;DHT22;1953;51.222;6.624;2023-03-12T02:36:35;4.40;1.00
3876;DHT22;1953;51.222;6.624;2023-03-12T02:41:21;4.50;1.00
3876;DHT22;1953;51.222;6.624;2023-03-12T02:46:05;4.50;1.00
3876;DHT22;1953;51.222;6.624;2023-03-12T02:50:49;4.50;1.00
3876;DHT22;1953;51.222;6.624;2023-03-12T02:55:31;4.60;1.00
3876;DHT22;1953;51.222;6.624;2023-03-12T03:00:14;4.60;1.00
3876;DHT22;1953;51.222;6.624;2023-03-12T03:04:58;4.60;1.00
3876;DHT22;1953;51.222;6.624;2023-03-12T03:09:41;4.60;1.00
3876;DHT22;1953;51.222;6.624;2023-03-12T03:14:23;4.60;1.00
3876;DHT22;1953;51.222;6.624;2023-03-12T03:19:06;4.60;1.00
3876;DHT22;1953;51.222;6.624;2023-03-12T03:23:50;4.60;1.00
3876;DHT22;1953;51.222;6.624;2023-03-12T03:28:33;4.50;1.00
3876;DHT22;1953;51.222;6.624;2023-03-12T03:33:15;4.50;1.00
3876;DHT22;1953;51.222;6.624;2023-03-12T03:37:58;4.50;1.00
3876;DHT22;1953;51.222;6.624;2023-03-12T03:42:41;4.50;1.00
3876;DHT22;1953;51.222;6.624;2023-03-12T03:47:24;4.40;1.00
3876;DHT22;1953;51.222;6.624;2023-03-12T03:52:06;4.50;1.00
3876;DHT22;1953;51.222;6.624;2023-03-12T03:56:49;4.50;1.00
3876;DHT22;1953;51.222;6.624;2023-03-12T04:01:33;4.50;1.00
3876;DHT22;1953;51.222;6.624;2023-03-12T04:06:15;4.50;1.00
3876;DHT22;1953;51.222;6.624;2023-03-12T04:10:57;4.60;1.00
3876;DHT22;1953;51.222;6.624;2023-03-12T04:15:45;4.60;1.00
3876;DHT22;1953;51.222;6.624;2023-03-12T04:20:29;4.70;1.00
3876;DHT22;1953;51.222;6.624;2023-03-12T04:25:11;4.60;1.00
3876;DHT22;1953;51.222;6.624;2023-03-12T04:29:54;4.60;1.00
3876;DHT22;1953;51.222;6.624;2023-03-12T04:34:36;4.70;1.00
3876;DHT22;1953;51.222;6.624;2023-03-12T04:39:20;4.70;1.00
3876;DHT22;1953;51.222;6.624;2023-03-12T04:44:03;4.70;1.00
3876;DHT22;1953;51.222;6.624;2023-03-12T04:48:45;4.70;1.00
3876;DHT22;1953;51.222;6.624;2023-03-12T04:53:28;4.70;1.00
3876;DHT22;1953;51.222;6.624;2023-03-12T04:58:11;4.80;1.00
3876;DHT22;1953;51.222;6.624;2023-03-12T05:02:54;4.80;1.00
3876;DHT22;1953;51.222;6.624;2023-03-12T05:07:36;4.70;1.00
3876;DHT22;1953;51.222;6.624;2023-03-12T05:12:19;4.70;1.00
3876;DHT22;1953;51.222;6.624;2023-03-12T05:17:03;4.60;1.00
3876;DHT22;1953;51.222;6.624;2023-03-12T05:21:46;4.60;1.00
3876;DHT22;1953;51.222;6.624;2023-03-12T05:26:30;4.50;1.00
3876;DHT22;1953;51.222;6.624;2023-03-12T05:31:13;4.50;1.00
3876;DHT22;1953;51.222;6.624;2023-03-12T05:35:57;4.50;1.00
3876;DHT22;1953;51.222;6.624;2023-03-12T05:40:39;4.50;1.00
3876;DHT22;1953;51.222;6.624;2023-03-12T05:45:21;4.40;1.00
3876;DHT22;1953;51.222;6.624;2023-03-12T05:50:04;4.50;1.00
3876;DHT22;1953;51.222;6.624;2023-03-12T05:54:50;4.40;1.00
3876;DHT22;1953;51.222;6.624;2023-03-12T05:59:33;4.40;1.00
3876;DHT22;1953;51.222;6.624;2023-03-12T06:04:16;4.30;1.00
3876;DHT22;1953;51.222;6.624;2023-03-12T06:08:58;4.20;1.00
3876;DHT22;1953;51.222;6.624;2023-03-12T06:13:42;4.10;1.00
3876;DHT22;1953;51.222;6.624;2023-03-12T06:18:25;4.10;1.00
3876;DHT22;1953;51.222;6.624;2023-03-12T06:23:07;4.00;1.00
3876;DHT22;1953;51.222;6.624;2023-03-12T06:27:50;4.00;1.00
3876;DHT22;1953;51.222;6.624;2023-03-12T06:32:33;4.00;1.00
3876;DHT22;1953;51.222;6.624;2023-03-12T06:37:16;4.10;1.00
3876;DHT22;1953;51.222;6.624;2023-03-12T06:41:58;4.10;1.00
3876;DHT22;1953;51.222;6.624;2023-03-12T06:46:41;4.20;1.00
3876;DHT22;1953;51.222;6.624;2023-03-12T06:51:25;4.30;1.00
3876;DHT22;1953;51.222;6.624;2023-03-12T06:56:08;4.30;1.00
3876;DHT22;1953;51.222;6.624;2023-03-12T07:00:51;4.30;1.00
3876;DHT22;1953;51.222;6.624;2023-03-12T07:05:34;4.30;1.00
3876;DHT22;1953;51.222;6.624;2023-03-12T07:10:17;4.40;1.00
3876;DHT22;1953;51.222;6.624;2023-03-12T07:15:00;4.50;1.00
3876;DHT22;1953;51.222;6.624;2023-03-12T07:19:42;4.50;1.00
3876;DHT22;1953;51.222;6.624;2023-03-12T07:24:25;4.50;1.00
3876;DHT22;1953;51.222;6.624;2023-03-12T07:29:08;4.50;1.00
3876;DHT22;1953;51.222;6.624;2023-03-12T07:33:51;4.50;1.00
3876;DHT22;1953;51.222;6.624;2023-03-12T07:38:34;4.50;1.00
3876;DHT22;1953;51.222;6.624;2023-03-12T07:43:16;4.50;1.00
3876;DHT22;1953;51.222;6.624;2023-03-12T07:48:00;4.60;1.00
3876;DHT22;1953;51.222;6.624;2023-03-12T07:52:42;4.60;1.00
3876;DHT22;1953;51.222;6.624;2023-03-12T07:57:25;4.70;1.00
3876;DHT22;1953;51.222;6.624;2023-03-12T08:02:08;4.80;1.00
3876;DHT22;1953;51.222;6.624;2023-03-12T08:06:52;4.80;1.00
3876;DHT22;1953;51.222;6.624;2023-03-12T08:11:35;4.80;1.00
3876;DHT22;1953;51.222;6.624;2023-03-12T08:16:18;4.90;1.00
3876;DHT22;1953;51.222;6.624;2023-03-12T08:21:00;5.00;1.00
3876;DHT22;1953;51.222;6.624;2023-03-12T08:25:45;5.00;1.00
3876;DHT22;1953;51.222;6.624;2023-03-12T08:30:28;5.10;1.00
3876;DHT22;1953;51.222;6.624;2023-03-12T08:35:10;5.10;1.00
3876;DHT22;1953;51.222;6.624;2023-03-12T08:39:53;5.20;1.00
3876;DHT22;1953;51.222;6.624;2023-03-12T08:44:37;5.30;1.00
3876;DHT22;1953;51.222;6.624;2023-03-12T08:49:20;5.30;1.00
3876;DHT22;1953;51.222;6.624;2023-03-12T08:54:03;5.40;1.00
3876;DHT22;1953;51.222;6.624;2023-03-12T08:58:45;5.40;1.00
3876;DHT22;1953;51.222;6.624;2023-03-12T09:03:29;5.30;1.00
3876;DHT22;1953;51.222;6.624;2023-03-12T09:08:12;5.30;1.00
3876;DHT22;1953;51.222;6.624;2023-03-12T09:12:54;5.40;1.00
3876;DHT22;1953;51.222;6.624;2023-03-12T09:17:37;5.50;1.00
3876;DHT22;1953;51.222;6.624;2023-03-12T09:22:21;5.60;1.00
3876;DHT22;1953;51.222;6.624;2023-03-12T09:27:03;5.60;1.00
3876;DHT22;1953;51.222;6.624;2023-03-12T09:31:46;5.70;1.00
3876;DHT22;1953;51.222;6.624;2023-03-12T09:36:28;5.70;1.00
3876;DHT22;1953;51.222;6.624;2023-03-12T09:41:20;5.80;1.00
3876;DHT22;1953;51.222;6.624;2023-03-12T09:46:03;5.80;1.00
3876;DHT22;1953;51.222;6.624;2023-03-12T09:50:51;5.70;1.00
3876;DHT22;1953;51.222;6.624;2023-03-12T09:55:36;5.80;1.00
3876;DHT22;1953;51.222;6.624;2023-03-12T10:00:23;5.90;1.00
3876;DHT22;1953;51.222;6.624;2023-03-12T10:05:09;6.00;1.00
3876;DHT22;1953;51.222;6.624;2023-03-12T10:10:09;6.10;1.00
3876;DHT22;1953;51.222;6.624;2023-03-12T10:15:03;6.30;1.00
3876;DHT22;1953;51.222;6.624;2023-03-12T10:20:02;6.50;1.00
3876;DHT22;1953;51.222;6.624;2023-03-12T10:24:55;6.50;1.00
3876;DHT22;1953;51.222;6.624;2023-03-12T10:29:41;6.60;1.00
3876;DHT22;1953;51.222;6.624;2023-03-12T10:34:29;6.70;1.00
3876;DHT22;1953;51.222;6.624;2023-03-12T10:39:16;6.80;1.00
3876;DHT22;1953;51.222;6.624;2023-03-12T10:44:02;7.00;1.00
3876;DHT22;1953;51.222;6.624;2023-03-12T10:48:47;7.20;1.00
3876;DHT22;1953;51.222;6.624;2023-03-12T10:53:31;7.30;1.00
3876;DHT22;1953;51.222;6.624;2023-03-12T10:58:23;7.40;1.00
3876;DHT22;1953;51.222;6.624;2023-03-12T11:03:18;7.50;1.00
3876;DHT22;1953;51.222;6.624;2023-03-12T11:08:02;7.70;1.00
3876;DHT22;1953;51.222;6.624;2023-03-12T11:12:58;7.90;1.00
3876;DHT22;1953;51.222;6.624;2023-03-12T11:17:42;8.10;1.00
3876;DHT22;1953;51.222;6.624;2023-03-12T11:22:29;8.30;1.00
3876;DHT22;1953;51.222;6.624;2023-03-12T11:27:19;8.50;1.00
3876;DHT22;1953;51.222;6.624;2023-03-12T11:32:14;8.70;1.00
3876;DHT22;1953;51.222;6.624;2023-03-12T11:37:06;9.00;1.00
3876;DHT22;1953;51.222;6.624;2023-03-12T11:42:05;9.40;1.00
3876;DHT22;1953;51.222;6.624;2023-03-12T11:47:02;9.70;1.00
3876;DHT22;1953;51.222;6.624;2023-03-12T11:51:54;10.00;1.00
3876;DHT22;1953;51.222;6.624;2023-03-12T11:56:41;10.30;1.00
3876;DHT22;1953;51.222;6.624;2023-03-12T12:01:34;10.40;1.00
3876;DHT22;1953;51.222;6.624;2023-03-12T12:11:13;10.80;1.00
3876;DHT22;1953;51.222;6.624;2023-03-12T12:16:09;10.90;1.00
3876;DHT22;1953;51.222;6.624;2023-03-12T12:21:00;11.10;1.00
3876;DHT22;1953;51.222;6.624;2023-03-12T12:25:56;11.40;1.00
3876;DHT22;1953;51.222;6.624;2023-03-12T12:30:52;11.60;1.00
3876;DHT22;1953;51.222;6.624;2023-03-12T12:35:37;11.90;1.00
3876;DHT22;1953;51.222;6.624;2023-03-12T12:40:23;12.10;1.00
3876;DHT22;1953;51.222;6.624;2023-03-12T12:45:12;12.30;1.00
3876;DHT22;1953;51.222;6.624;2023-03-12T12:49:58;12.80;1.00
3876;DHT22;1953;51.222;6.624;2023-03-12T12:54:50;13.20;1.00
3876;DHT22;1953;51.222;6.624;2023-03-12T12:59:38;13.10;1.00
3876;DHT22;1953;51.222;6.624;2023-03-12T13:04:26;13.00;1.00
3876;DHT22;1953;51.222;6.624;2023-03-12T13:09:15;13.00;1.00
3876;DHT22;1953;51.222;6.624;2023-03-12T13:14:20;13.00;1.00
3876;DHT22;1953;51.222;6.624;2023-03-12T13:19:05;12.90;1.00
3876;DHT22;1953;51.222;6.624;2023-03-12T13:23:54;12.70;1.00
3876;DHT22;1953;51.222;6.624;2023-03-12T13:33:13;12.60;1.00
3876;DHT22;1953;51.222;6.624;2023-03-12T13:38:00;12.60;1.00
3876;DHT22;1953;51.222;6.624;2023-03-12T13:42:43;12.70;1.00
3876;DHT22;1953;51.222;6.624;2023-03-12T13:47:43;12.90;1.00
3876;DHT22;1953;51.222;6.624;2023-03-12T13:52:27;13.00;1.00
3876;DHT22;1953;51.222;6.624;2023-03-12T13:57:23;13.00;1.00
3876;DHT22;1953;51.222;6.624;2023-03-12T14:02:14;13.00;1.00
3876;DHT22;1953;51.222;6.624;2023-03-12T14:12:06;13.10;1.00
3876;DHT22;1953;51.222;6.624;2023-03-12T14:16:51;13.30;1.00
3876;DHT22;1953;51.222;6.624;2023-03-12T14:21:37;13.50;1.00
3876;DHT22;1953;51.222;6.624;2023-03-12T14:26:23;13.50;1.00
3876;DHT22;1953;51.222;6.624;2023-03-12T14:31:10;13.50;1.00
3876;DHT22;1953;51.222;6.624;2023-03-12T14:35:57;13.50;1.00
3876;DHT22;1953;51.222;6.624;2023-03-12T14:40:44;13.50;1.00
3876;DHT22;1953;51.222;6.624;2023-03-12T14:45:29;13.50;1.00
3876;DHT22;1953;51.222;6.624;2023-03-12T14:50:18;13.50;1.00
3876;DHT22;1953;51.222;6.624;2023-03-12T14:55:03;13.50;1.00
3876;DHT22;1953;51.222;6.624;2023-03-12T14:59:51;13.70;1.00
3876;DHT22;1953;51.222;6.624;2023-03-12T15:04:34;13.90;1.00
3876;DHT22;1953;51.222;6.624;2023-03-12T15:09:19;14.00;1.00
3876;DHT22;1953;51.222;6.624;2023-03-12T15:14:06;14.00;1.00
3876;DHT22;1953;51.222;6.624;2023-03-12T15:18:50;13.90;1.00
3876;DHT22;1953;51.222;6.624;2023-03-12T15:23:35;13.90;1.00
3876;DHT22;1953;51.222;6.624;2023-03-12T15:28:27;13.70;1.00
3876;DHT22;1953;51.222;6.624;2023-03-12T15:33:12;13.80;1.00
3876;DHT22;1953;51.222;6.624;2023-03-12T15:38:05;13.70;1.00
3876;DHT22;1953;51.222;6.624;2023-03-12T15:42:47;13.70;1.00
3876;DHT22;1953;51.222;6.624;2023-03-12T15:47:33;13.80;1.00
3876;DHT22;1953;51.222;6.624;2023-03-12T15:52:31;14.00;1.00
3876;DHT22;1953;51.222;6.624;2023-03-12T15:57:20;13.90;1.00
3876;DHT22;1953;51.222;6.624;2023-03-12T16:02:03;13.80;1.00
3876;DHT22;1953;51.222;6.624;2023-03-12T16:06:47;13.60;1.00
3876;DHT22;1953;51.222;6.624;2023-03-12T16:11:32;13.60;1.00
3876;DHT22;1953;51.222;6.624;2023-03-12T16:16:16;13.50;1.00
3876;DHT22;1953;51.222;6.624;2023-03-12T16:20:58;13.40;1.00
3876;DHT22;1953;51.222;6.624;2023-03-12T16:25:43;13.40;1.00
3876;DHT22;1953;51.222;6.624;2023-03-12T16:30:28;13.40;1.00
3876;DHT22;1953;51.222;6.624;2023-03-12T16:35:12;13.30;1.00
3876;DHT22;1953;51.222;6.624;2023-03-12T16:39:55;13.20;1.00
3876;DHT22;1953;51.222;6.624;2023-03-12T16:44:39;13.20;1.00
3876;DHT22;1953;51.222;6.624;2023-03-12T16:49:23;13.10;1.00
3876;DHT22;1953;51.222;6.624;2023-03-12T16:54:05;13.00;1.00
3876;DHT22;1953;51.222;6.624;2023-03-12T16:58:48;13.10;1.00
3876;DHT22;1953;51.222;6.624;2023-03-12T17:03:33;13.10;1.00
3876;DHT22;1953;51.222;6.624;2023-03-12T17:08:17;13.10;1.00
3876;DHT22;1953;51.222;6.624;2023-03-12T17:12:59;13.00;1.00
3876;DHT22;1953;51.222;6.624;2023-03-12T17:17:42;12.90;1.00
3876;DHT22;1953;51.222;6.624;2023-03-12T17:22:26;12.80;1.00
3876;DHT22;1953;51.222;6.624;2023-03-12T17:27:08;12.80;1.00
3876;DHT22;1953;51.222;6.624;2023-03-12T17:31:51;12.70;1.00
3876;DHT22;1953;51.222;6.624;2023-03-12T17:36:35;12.70;1.00
3876;DHT22;1953;51.222;6.624;2023-03-12T17:41:19;12.60;1.00
3876;DHT22;1953;51.222;6.624;2023-03-12T17:46:03;12.60;1.00
3876;DHT22;1953;51.222;6.624;2023-03-12T17:50:46;12.60;1.00
3876;DHT22;1953;51.222;6.624;2023-03-12T17:55:28;12.50;1.00
3876;DHT22;1953;51.222;6.624;2023-03-12T18:00:13;12.50;1.00
3876;DHT22;1953;51.222;6.624;2023-03-12T18:04:55;12.40;1.00
3876;DHT22;1953;51.222;6.624;2023-03-12T18:09:38;12.40;1.00
3876;DHT22;1953;51.222;6.624;2023-03-12T18:14:20;12.40;1.00
3876;DHT22;1953;51.222;6.624;2023-03-12T18:19:04;12.40;1.00
3876;DHT22;1953;51.222;6.624;2023-03-12T18:23:46;12.40;1.00
3876;DHT22;1953;51.222;6.624;2023-03-12T18:28:29;12.40;1.00
3876;DHT22;1953;51.222;6.624;2023-03-12T18:33:12;12.40;1.00
3876;DHT22;1953;51.222;6.624;2023-03-12T18:37:57;12.40;1.00
3876;DHT22;1953;51.222;6.624;2023-03-12T18:42:39;12.30;1.00
3876;DHT22;1953;51.222;6.624;2023-03-12T18:47:24;12.30;1.00
3876;DHT22;1953;51.222;6.624;2023-03-12T18:52:07;12.30;1.00
3876;DHT22;1953;51.222;6.624;2023-03-12T18:56:50;12.30;1.00
3876;DHT22;1953;51.222;6.624;2023-03-12T19:01:33;12.20;1.00
3876;DHT22;1953;51.222;6.624;2023-03-12T19:06:16;12.10;1.00
3876;DHT22;1953;51.222;6.624;2023-03-12T19:10:58;12.10;1.00
3876;DHT22;1953;51.222;6.624;2023-03-12T19:15:42;12.10;1.00
3876;DHT22;1953;51.222;6.624;2023-03-12T19:20:25;12.10;1.00
3876;DHT22;1953;51.222;6.624;2023-03-12T19:25:08;12.10;1.00
3876;DHT22;1953;51.222;6.624;2023-03-12T19:29:50;12.10;1.00
3876;DHT22;1953;51.222;6.624;2023-03-12T19:34:34;12.10;1.00
3876;DHT22;1953;51.222;6.624;2023-03-12T19:39:17;12.00;1.00
3876;DHT22;1953;51.222;6.624;2023-03-12T19:44:00;12.00;1.00
3876;DHT22;1953;51.222;6.624;2023-03-12T19:48:42;12.00;1.00
3876;DHT22;1953;51.222;6.624;2023-03-12T19:53:26;12.00;1.00
3876;DHT22;1953;51.222;6.624;2023-03-12T19:58:09;11.90;1.00
3876;DHT22;1953;51.222;6.624;2023-03-12T20:02:51;11.80;1.00
3876;DHT22;1953;51.222;6.624;2023-03-12T20:07:34;11.80;1.00
3876;DHT22;1953;51.222;6.624;2023-03-12T20:12:18;11.70;1.00
3876;DHT22;1953;51.222;6.624;2023-03-12T20:17:01;11.50;1.00
3876;DHT22;1953;51.222;6.624;2023-03-12T20:21:43;11.50;1.00
3876;DHT22;1953;51.222;6.624;2023-03-12T20:26:28;11.40;1.00
3876;DHT22;1953;51.222;6.624;2023-03-12T20:31:13;11.50;1.00
3876;DHT22;1953;51.222;6.624;2023-03-12T20:35:56;11.40;1.00
3876;DHT22;1953;51.222;6.624;2023-03-12T20:40:38;11.40;1.00
3876;DHT22;1953;51.222;6.624;2023-03-12T20:45:21;11.40;1.00
3876;DHT22;1953;51.222;6.624;2023-03-12T20:50:05;11.40;1.00
3876;DHT22;1953;51.222;6.624;2023-03-12T20:54:48;11.30;1.00
3876;DHT22;1953;51.222;6.624;2023-03-12T20:59:30;11.20;1.00
3876;DHT22;1953;51.222;6.624;2023-03-12T21:04:12;11.20;1.00
3876;DHT22;1953;51.222;6.624;2023-03-12T21:08:57;11.20;1.00
3876;DHT22;1953;51.222;6.624;2023-03-12T21:13:39;11.20;1.00
3876;DHT22;1953;51.222;6.624;2023-03-12T21:18:22;11.20;1.00
3876;DHT22;1953;51.222;6.624;2023-03-12T21:23:05;11.30;1.00
3876;DHT22;1953;51.222;6.624;2023-03-12T21:27:49;11.20;1.00
3876;DHT22;1953;51.222;6.624;2023-03-12T21:32:31;11.30;1.00
3876;DHT22;1953;51.222;6.624;2023-03-12T21:37:14;11.30;1.00
3876;DHT22;1953;51.222;6.624;2023-03-12T21:41:57;11.30;1.00
3876;DHT22;1953;51.222;6.624;2023-03-12T21:46:41;11.30;1.00
3876;DHT22;1953;51.222;6.624;2023-03-12T21:51:23;11.30;1.00
3876;DHT22;1953;51.222;6.624;2023-03-12T21:56:07;11.40;1.00
3876;DHT22;1953;51.222;6.624;2023-03-12T22:00:50;11.40;1.00
3876;DHT22;1953;51.222;6.624;2023-03-12T22:05:33;11.40;1.00
3876;DHT22;1953;51.222;6.624;2023-03-12T22:10:16;11.40;1.00
3876;DHT22;1953;51.222;6.624;2023-03-12T22:14:58;11.40;1.00
3876;DHT22;1953;51.222;6.624;2023-03-12T22:19:41;11.40;1.00
3876;DHT22;1953;51.222;6.624;2023-03-12T22:24:25;11.40;1.00
3876;DHT22;1953;51.222;6.624;2023-03-12T22:29:07;11.50;1.00
3876;DHT22;1953;51.222;6.624;2023-03-12T22:33:50;11.50;1.00
3876;DHT22;1953;51.222;6.624;2023-03-12T22:38:33;11.50;1.00
3876;DHT22;1953;51.222;6.624;2023-03-12T22:43:18;11.60;1.00
3876;DHT22;1953;51.222;6.624;2023-03-12T22:48:00;11.70;1.00
3876;DHT22;1953;51.222;6.624;2023-03-12T22:52:43;11.70;1.00
3876;DHT22;1953;51.222;6.624;2023-03-12T22:57:25;11.70;1.00
3876;DHT22;1953;51.222;6.624;2023-03-12T23:02:09;11.70;1.00
3876;DHT22;1953;51.222;6.624;2023-03-12T23:06:51;13.60;1.00
3876;DHT22;1953;51.222;6.624;2023-03-12T23:11:34;11.70;1.00
3876;DHT22;1953;51.222;6.624;2023-03-12T23:16:19;11.70;1.00
3876;DHT22;1953;51.222;6.624;2023-03-12T23:21:05;11.80;1.00
3876;DHT22;1953;51.222;6.624;2023-03-12T23:25:51;11.90;1.00
3876;DHT22;1953;51.222;6.624;2023-03-12T23:30:33;11.90;1.00
3876;DHT22;1953;51.222;6.624;2023-03-12T23:35:16;11.90;1.00
3876;DHT22;1953;51.222;6.624;2023-03-12T23:40:00;11.90;1.00
3876;DHT22;1953;51.222;6.624;2023-03-12T23:44:44;11.90;1.00
3876;DHT22;1953;51.222;6.624;2023-03-12T23:49:26;12.00;1.00
3876;DHT22;1953;51.222;6.624;2023-03-12T23:54:09;12.10;1.00
3876;DHT22;1953;51.222;6.624;2023-03-12T23:58:53;12.10;1.00
